sensor_id;sensor_type;location;lat;lon;timestamp;P1;durP1;ratioP1;P2;durP2;ratioP2
20322;SDS011;10319;52.206;20.996;2022-12-15T00:01:35;26.87;;;10.30;;
20322;SDS011;10319;52.206;20.996;2022-12-15T00:04:19;26.73;;;10.87;;
20322;SDS011;10319;52.206;20.996;2022-12-15T00:07:03;28.80;;;10.73;;
20322;SDS011;10319;52.206;20.996;2022-12-15T00:09:47;31.67;;;12.13;;
20322;SDS011;10319;52.206;20.996;2022-12-15T00:12:31;24.30;;;9.43;;
20322;SDS011;10319;52.206;20.996;2022-12-15T00:15:15;20.77;;;7.77;;
20322;SDS011;10319;52.206;20.996;2022-12-15T00:18:03;25.03;;;10.00;;
20322;SDS011;10319;52.206;20.996;2022-12-15T00:20:47;27.57;;;10.47;;
20322;SDS011;10319;52.206;20.996;2022-12-15T00:23:30;20.87;;;8.00;;
20322;SDS011;10319;52.206;20.996;2022-12-15T00:26:15;22.33;;;8.70;;
20322;SDS011;10319;52.206;20.996;2022-12-15T00:28:59;26.87;;;9.53;;
20322;SDS011;10319;52.206;20.996;2022-12-15T00:31:43;24.70;;;9.37;;
20322;SDS011;10319;52.206;20.996;2022-12-15T00:34:27;22.50;;;7.60;;
20322;SDS011;10319;52.206;20.996;2022-12-15T00:37:11;20.83;;;8.00;;
20322;SDS011;10319;52.206;20.996;2022-12-15T00:39:55;21.40;;;8.53;;
20322;SDS011;10319;52.206;20.996;2022-12-15T00:42:26;24.47;;;8.80;;
20322;SDS011;10319;52.206;20.996;2022-12-15T00:44:52;19.97;;;7.60;;
20322;SDS011;10319;52.206;20.996;2022-12-15T00:47:17;22.07;;;8.03;;
20322;SDS011;10319;52.206;20.996;2022-12-15T00:49:43;23.03;;;8.80;;
20322;SDS011;10319;52.206;20.996;2022-12-15T00:52:27;19.70;;;6.67;;
20322;SDS011;10319;52.206;20.996;2022-12-15T00:55:10;20.93;;;7.23;;
20322;SDS011;10319;52.206;20.996;2022-12-15T00:57:54;24.23;;;9.03;;
20322;SDS011;10319;52.206;20.996;2022-12-15T01:00:38;23.90;;;9.33;;
20322;SDS011;10319;52.206;20.996;2022-12-15T01:03:23;25.67;;;10.17;;
20322;SDS011;10319;52.206;20.996;2022-12-15T01:06:07;22.50;;;8.60;;
20322;SDS011;10319;52.206;20.996;2022-12-15T01:08:51;23.70;;;9.33;;
20322;SDS011;10319;52.206;20.996;2022-12-15T01:11:35;19.33;;;7.20;;
20322;SDS011;10319;52.206;20.996;2022-12-15T01:14:19;22.47;;;7.93;;
20322;SDS011;10319;52.206;20.996;2022-12-15T01:17:03;20.77;;;7.83;;
20322;SDS011;10319;52.206;20.996;2022-12-15T01:19:47;18.00;;;6.10;;
20322;SDS011;10319;52.206;20.996;2022-12-15T01:22:31;23.27;;;8.50;;
20322;SDS011;10319;52.206;20.996;2022-12-15T01:24:56;17.73;;;6.70;;
20322;SDS011;10319;52.206;20.996;2022-12-15T01:27:21;18.10;;;6.90;;
20322;SDS011;10319;52.206;20.996;2022-12-15T01:29:47;25.43;;;10.40;;
20322;SDS011;10319;52.206;20.996;2022-12-15T01:32:12;21.63;;;8.03;;
20322;SDS011;10319;52.206;20.996;2022-12-15T01:34:37;18.33;;;6.37;;
20322;SDS011;10319;52.206;20.996;2022-12-15T01:37:02;23.80;;;9.23;;
20322;SDS011;10319;52.206;20.996;2022-12-15T01:39:28;23.63;;;9.87;;
20322;SDS011;10319;52.206;20.996;2022-12-15T01:42:13;24.20;;;9.07;;
20322;SDS011;10319;52.206;20.996;2022-12-15T01:44:38;26.87;;;10.20;;
20322;SDS011;10319;52.206;20.996;2022-12-15T01:47:03;24.30;;;9.50;;
20322;SDS011;10319;52.206;20.996;2022-12-15T01:49:29;22.57;;;8.33;;
20322;SDS011;10319;52.206;20.996;2022-12-15T01:51:56;21.73;;;8.23;;
20322;SDS011;10319;52.206;20.996;2022-12-15T01:54:24;26.27;;;9.93;;
20322;SDS011;10319;52.206;20.996;2022-12-15T01:56:52;21.07;;;8.23;;
20322;SDS011;10319;52.206;20.996;2022-12-15T01:59:24;19.77;;;7.03;;
20322;SDS011;10319;52.206;20.996;2022-12-15T02:01:51;15.60;;;5.27;;
20322;SDS011;10319;52.206;20.996;2022-12-15T02:04:17;16.50;;;5.37;;
20322;SDS011;10319;52.206;20.996;2022-12-15T02:06:43;19.00;;;7.20;;
20322;SDS011;10319;52.206;20.996;2022-12-15T02:09:08;20.73;;;8.10;;
20322;SDS011;10319;52.206;20.996;2022-12-15T02:14:03;24.40;;;8.93;;
20322;SDS011;10319;52.206;20.996;2022-12-15T02:27:07;26.50;;;10.50;;
20322;SDS011;10319;52.206;20.996;2022-12-15T02:32:07;25.57;;;9.70;;
20322;SDS011;10319;52.206;20.996;2022-12-15T02:37:09;19.27;;;6.87;;
20322;SDS011;10319;52.206;20.996;2022-12-15T02:39:36;20.93;;;7.13;;
20322;SDS011;10319;52.206;20.996;2022-12-15T02:42:01;24.20;;;9.10;;
20322;SDS011;10319;52.206;20.996;2022-12-15T02:46:54;24.43;;;9.83;;
20322;SDS011;10319;52.206;20.996;2022-12-15T02:50:01;22.77;;;9.17;;
20322;SDS011;10319;52.206;20.996;2022-12-15T02:54:54;24.07;;;9.90;;
20322;SDS011;10319;52.206;20.996;2022-12-15T02:57:31;24.47;;;10.30;;
20322;SDS011;10319;52.206;20.996;2022-12-15T03:00:02;26.53;;;11.20;;
20322;SDS011;10319;52.206;20.996;2022-12-15T03:02:29;26.30;;;10.90;;
20322;SDS011;10319;52.206;20.996;2022-12-15T03:04:55;25.00;;;10.53;;
20322;SDS011;10319;52.206;20.996;2022-12-15T03:07:21;26.87;;;10.43;;
20322;SDS011;10319;52.206;20.996;2022-12-15T03:09:47;22.50;;;8.33;;
20322;SDS011;10319;52.206;20.996;2022-12-15T03:12:12;26.03;;;10.17;;
20322;SDS011;10319;52.206;20.996;2022-12-15T03:14:37;25.97;;;11.00;;
20322;SDS011;10319;52.206;20.996;2022-12-15T03:17:02;26.37;;;10.83;;
20322;SDS011;10319;52.206;20.996;2022-12-15T03:19:31;23.40;;;9.40;;
20322;SDS011;10319;52.206;20.996;2022-12-15T03:21:56;29.13;;;11.03;;
20322;SDS011;10319;52.206;20.996;2022-12-15T03:24:21;28.50;;;11.20;;
20322;SDS011;10319;52.206;20.996;2022-12-15T03:26:46;26.73;;;10.80;;
20322;SDS011;10319;52.206;20.996;2022-12-15T03:29:14;29.07;;;11.50;;
20322;SDS011;10319;52.206;20.996;2022-12-15T03:31:39;20.90;;;8.60;;
20322;SDS011;10319;52.206;20.996;2022-12-15T03:34:04;22.87;;;9.47;;
20322;SDS011;10319;52.206;20.996;2022-12-15T03:36:29;22.60;;;8.57;;
20322;SDS011;10319;52.206;20.996;2022-12-15T03:38:54;20.83;;;7.07;;
20322;SDS011;10319;52.206;20.996;2022-12-15T03:41:20;20.97;;;8.17;;
20322;SDS011;10319;52.206;20.996;2022-12-15T03:43:45;22.37;;;8.17;;
20322;SDS011;10319;52.206;20.996;2022-12-15T03:46:10;21.53;;;8.73;;
20322;SDS011;10319;52.206;20.996;2022-12-15T03:48:35;25.87;;;10.20;;
20322;SDS011;10319;52.206;20.996;2022-12-15T03:51:01;24.47;;;9.97;;
20322;SDS011;10319;52.206;20.996;2022-12-15T03:53:26;27.00;;;10.40;;
20322;SDS011;10319;52.206;20.996;2022-12-15T03:55:51;28.13;;;10.73;;
20322;SDS011;10319;52.206;20.996;2022-12-15T03:58:16;25.70;;;11.23;;
20322;SDS011;10319;52.206;20.996;2022-12-15T04:00:41;26.73;;;11.17;;
20322;SDS011;10319;52.206;20.996;2022-12-15T04:03:08;28.03;;;11.87;;
20322;SDS011;10319;52.206;20.996;2022-12-15T04:05:33;26.90;;;11.47;;
20322;SDS011;10319;52.206;20.996;2022-12-15T04:07:59;29.60;;;11.77;;
20322;SDS011;10319;52.206;20.996;2022-12-15T04:10:25;28.03;;;11.93;;
20322;SDS011;10319;52.206;20.996;2022-12-15T04:13:01;27.43;;;11.23;;
20322;SDS011;10319;52.206;20.996;2022-12-15T04:15:27;27.83;;;11.70;;
20322;SDS011;10319;52.206;20.996;2022-12-15T04:17:52;28.57;;;12.00;;
20322;SDS011;10319;52.206;20.996;2022-12-15T04:20:17;25.87;;;11.03;;
20322;SDS011;10319;52.206;20.996;2022-12-15T04:22:45;25.00;;;10.60;;
20322;SDS011;10319;52.206;20.996;2022-12-15T04:25:11;27.73;;;11.37;;
20322;SDS011;10319;52.206;20.996;2022-12-15T04:27:55;24.23;;;10.07;;
20322;SDS011;10319;52.206;20.996;2022-12-15T04:30:41;26.97;;;11.47;;
20322;SDS011;10319;52.206;20.996;2022-12-15T04:33:25;21.60;;;8.47;;
20322;SDS011;10319;52.206;20.996;2022-12-15T04:36:10;23.23;;;9.20;;
20322;SDS011;10319;52.206;20.996;2022-12-15T04:38:54;22.50;;;8.67;;
20322;SDS011;10319;52.206;20.996;2022-12-15T04:41:39;22.87;;;9.13;;
20322;SDS011;10319;52.206;20.996;2022-12-15T04:44:23;19.10;;;6.97;;
20322;SDS011;10319;52.206;20.996;2022-12-15T04:47:07;20.73;;;7.43;;
20322;SDS011;10319;52.206;20.996;2022-12-15T04:49:50;20.70;;;7.63;;
20322;SDS011;10319;52.206;20.996;2022-12-15T04:52:35;20.60;;;7.43;;
20322;SDS011;10319;52.206;20.996;2022-12-15T04:55:19;18.63;;;7.30;;
20322;SDS011;10319;52.206;20.996;2022-12-15T04:58:04;22.53;;;8.43;;
20322;SDS011;10319;52.206;20.996;2022-12-15T05:00:48;25.60;;;10.27;;
20322;SDS011;10319;52.206;20.996;2022-12-15T05:03:32;23.60;;;9.13;;
20322;SDS011;10319;52.206;20.996;2022-12-15T05:06:16;23.23;;;8.47;;
20322;SDS011;10319;52.206;20.996;2022-12-15T05:09:00;19.60;;;7.00;;
20322;SDS011;10319;52.206;20.996;2022-12-15T05:11:44;17.87;;;6.33;;
20322;SDS011;10319;52.206;20.996;2022-12-15T05:14:28;17.93;;;6.73;;
20322;SDS011;10319;52.206;20.996;2022-12-15T05:17:12;22.57;;;8.80;;
20322;SDS011;10319;52.206;20.996;2022-12-15T05:19:56;20.67;;;7.73;;
20322;SDS011;10319;52.206;20.996;2022-12-15T05:22:40;18.30;;;6.80;;
20322;SDS011;10319;52.206;20.996;2022-12-15T05:25:24;23.77;;;8.37;;
20322;SDS011;10319;52.206;20.996;2022-12-15T05:28:07;18.60;;;6.43;;
20322;SDS011;10319;52.206;20.996;2022-12-15T05:30:52;24.03;;;9.10;;
20322;SDS011;10319;52.206;20.996;2022-12-15T05:33:35;24.03;;;9.20;;
20322;SDS011;10319;52.206;20.996;2022-12-15T05:36:01;22.53;;;8.30;;
20322;SDS011;10319;52.206;20.996;2022-12-15T05:38:26;20.67;;;8.37;;
20322;SDS011;10319;52.206;20.996;2022-12-15T05:40:51;22.10;;;8.93;;
20322;SDS011;10319;52.206;20.996;2022-12-15T05:43:17;20.93;;;7.70;;
20322;SDS011;10319;52.206;20.996;2022-12-15T05:45:42;20.10;;;7.73;;
20322;SDS011;10319;52.206;20.996;2022-12-15T05:48:07;20.33;;;7.20;;
20322;SDS011;10319;52.206;20.996;2022-12-15T05:50:32;20.57;;;7.50;;
20322;SDS011;10319;52.206;20.996;2022-12-15T05:52:58;18.27;;;6.37;;
20322;SDS011;10319;52.206;20.996;2022-12-15T05:55:23;18.10;;;6.53;;
20322;SDS011;10319;52.206;20.996;2022-12-15T05:57:52;21.97;;;8.43;;
20322;SDS011;10319;52.206;20.996;2022-12-15T06:00:18;22.40;;;9.27;;
20322;SDS011;10319;52.206;20.996;2022-12-15T06:02:43;26.77;;;11.30;;
20322;SDS011;10319;52.206;20.996;2022-12-15T06:05:08;25.97;;;10.17;;
20322;SDS011;10319;52.206;20.996;2022-12-15T06:07:33;28.03;;;12.67;;
20322;SDS011;10319;52.206;20.996;2022-12-15T06:09:59;24.93;;;10.33;;
20322;SDS011;10319;52.206;20.996;2022-12-15T06:12:24;22.80;;;9.10;;
20322;SDS011;10319;52.206;20.996;2022-12-15T06:14:49;25.90;;;11.03;;
20322;SDS011;10319;52.206;20.996;2022-12-15T06:17:14;24.80;;;9.60;;
20322;SDS011;10319;52.206;20.996;2022-12-15T06:19:39;25.00;;;9.97;;
20322;SDS011;10319;52.206;20.996;2022-12-15T06:22:05;25.70;;;10.20;;
20322;SDS011;10319;52.206;20.996;2022-12-15T06:24:30;26.27;;;10.87;;
20322;SDS011;10319;52.206;20.996;2022-12-15T06:26:55;25.13;;;10.27;;
20322;SDS011;10319;52.206;20.996;2022-12-15T06:29:20;29.10;;;12.00;;
20322;SDS011;10319;52.206;20.996;2022-12-15T06:31:46;28.33;;;11.80;;
20322;SDS011;10319;52.206;20.996;2022-12-15T06:34:13;32.43;;;13.33;;
20322;SDS011;10319;52.206;20.996;2022-12-15T06:36:39;24.70;;;9.87;;
20322;SDS011;10319;52.206;20.996;2022-12-15T06:39:05;22.90;;;8.50;;
20322;SDS011;10319;52.206;20.996;2022-12-15T06:41:31;32.20;;;14.57;;
20322;SDS011;10319;52.206;20.996;2022-12-15T06:43:56;28.03;;;11.37;;
20322;SDS011;10319;52.206;20.996;2022-12-15T06:46:22;31.60;;;13.40;;
20322;SDS011;10319;52.206;20.996;2022-12-15T06:48:48;28.13;;;11.97;;
20322;SDS011;10319;52.206;20.996;2022-12-15T06:51:13;25.60;;;11.20;;
20322;SDS011;10319;52.206;20.996;2022-12-15T06:53:39;26.33;;;10.73;;
20322;SDS011;10319;52.206;20.996;2022-12-15T06:56:06;29.53;;;12.63;;
20322;SDS011;10319;52.206;20.996;2022-12-15T06:58:32;28.10;;;11.87;;
20322;SDS011;10319;52.206;20.996;2022-12-15T07:00:57;35.53;;;15.90;;
20322;SDS011;10319;52.206;20.996;2022-12-15T07:03:23;34.37;;;15.23;;
20322;SDS011;10319;52.206;20.996;2022-12-15T07:05:48;32.10;;;13.90;;
20322;SDS011;10319;52.206;20.996;2022-12-15T07:08:23;28.20;;;12.10;;
20322;SDS011;10319;52.206;20.996;2022-12-15T07:10:49;24.47;;;9.87;;
20322;SDS011;10319;52.206;20.996;2022-12-15T07:13:14;29.43;;;13.17;;
20322;SDS011;10319;52.206;20.996;2022-12-15T07:15:39;34.50;;;14.83;;
20322;SDS011;10319;52.206;20.996;2022-12-15T07:18:05;27.23;;;11.93;;
20322;SDS011;10319;52.206;20.996;2022-12-15T07:20:31;29.87;;;13.03;;
20322;SDS011;10319;52.206;20.996;2022-12-15T07:22:56;34.83;;;15.80;;
20322;SDS011;10319;52.206;20.996;2022-12-15T07:25:22;32.13;;;13.83;;
20322;SDS011;10319;52.206;20.996;2022-12-15T07:27:47;32.20;;;13.97;;
20322;SDS011;10319;52.206;20.996;2022-12-15T07:30:13;35.50;;;15.37;;
20322;SDS011;10319;52.206;20.996;2022-12-15T07:32:39;29.97;;;13.60;;
20322;SDS011;10319;52.206;20.996;2022-12-15T07:35:04;27.10;;;11.13;;
20322;SDS011;10319;52.206;20.996;2022-12-15T07:37:30;31.47;;;13.53;;
20322;SDS011;10319;52.206;20.996;2022-12-15T07:39:55;35.60;;;15.03;;
20322;SDS011;10319;52.206;20.996;2022-12-15T07:42:20;36.77;;;15.57;;
20322;SDS011;10319;52.206;20.996;2022-12-15T07:44:45;32.50;;;14.77;;
20322;SDS011;10319;52.206;20.996;2022-12-15T07:47:11;35.87;;;16.30;;
20322;SDS011;10319;52.206;20.996;2022-12-15T07:49:36;34.07;;;14.97;;
20322;SDS011;10319;52.206;20.996;2022-12-15T07:52:04;32.03;;;13.77;;
20322;SDS011;10319;52.206;20.996;2022-12-15T07:54:29;30.83;;;13.87;;
20322;SDS011;10319;52.206;20.996;2022-12-15T07:56:55;28.43;;;11.80;;
20322;SDS011;10319;52.206;20.996;2022-12-15T07:59:20;29.17;;;12.10;;
20322;SDS011;10319;52.206;20.996;2022-12-15T08:01:45;24.47;;;10.27;;
20322;SDS011;10319;52.206;20.996;2022-12-15T08:04:10;22.80;;;9.70;;
20322;SDS011;10319;52.206;20.996;2022-12-15T08:06:36;29.03;;;12.77;;
20322;SDS011;10319;52.206;20.996;2022-12-15T08:09:01;29.53;;;12.50;;
20322;SDS011;10319;52.206;20.996;2022-12-15T08:11:26;25.67;;;10.47;;
20322;SDS011;10319;52.206;20.996;2022-12-15T08:13:52;23.73;;;9.07;;
20322;SDS011;10319;52.206;20.996;2022-12-15T08:16:17;34.20;;;14.53;;
20322;SDS011;10319;52.206;20.996;2022-12-15T08:18:43;26.00;;;11.80;;
20322;SDS011;10319;52.206;20.996;2022-12-15T08:21:09;33.57;;;14.33;;
20322;SDS011;10319;52.206;20.996;2022-12-15T08:23:35;31.33;;;13.63;;
20322;SDS011;10319;52.206;20.996;2022-12-15T08:26:01;25.90;;;10.77;;
20322;SDS011;10319;52.206;20.996;2022-12-15T08:28:26;29.10;;;12.50;;
20322;SDS011;10319;52.206;20.996;2022-12-15T08:30:51;33.17;;;14.50;;
20322;SDS011;10319;52.206;20.996;2022-12-15T08:33:16;37.50;;;16.33;;
20322;SDS011;10319;52.206;20.996;2022-12-15T08:35:41;33.57;;;16.20;;
20322;SDS011;10319;52.206;20.996;2022-12-15T08:38:07;36.43;;;16.27;;
20322;SDS011;10319;52.206;20.996;2022-12-15T08:40:32;29.00;;;13.63;;
20322;SDS011;10319;52.206;20.996;2022-12-15T08:42:58;34.90;;;15.83;;
20322;SDS011;10319;52.206;20.996;2022-12-15T08:45:23;33.40;;;14.93;;
20322;SDS011;10319;52.206;20.996;2022-12-15T08:47:48;31.60;;;14.40;;
20322;SDS011;10319;52.206;20.996;2022-12-15T08:50:13;29.00;;;12.93;;
20322;SDS011;10319;52.206;20.996;2022-12-15T08:52:38;32.97;;;13.87;;
20322;SDS011;10319;52.206;20.996;2022-12-15T08:55:07;35.93;;;15.90;;
20322;SDS011;10319;52.206;20.996;2022-12-15T08:57:32;32.77;;;14.70;;
20322;SDS011;10319;52.206;20.996;2022-12-15T08:59:58;33.40;;;14.30;;
20322;SDS011;10319;52.206;20.996;2022-12-15T09:02:23;32.63;;;14.57;;
20322;SDS011;10319;52.206;20.996;2022-12-15T09:04:48;35.80;;;14.93;;
20322;SDS011;10319;52.206;20.996;2022-12-15T09:07:14;27.73;;;12.13;;
20322;SDS011;10319;52.206;20.996;2022-12-15T09:09:40;25.07;;;10.30;;
20322;SDS011;10319;52.206;20.996;2022-12-15T09:12:05;24.23;;;9.63;;
20322;SDS011;10319;52.206;20.996;2022-12-15T09:14:30;27.53;;;10.93;;
20322;SDS011;10319;52.206;20.996;2022-12-15T09:16:55;25.87;;;11.40;;
20322;SDS011;10319;52.206;20.996;2022-12-15T09:19:21;33.43;;;14.40;;
20322;SDS011;10319;52.206;20.996;2022-12-15T09:21:46;29.37;;;12.67;;
20322;SDS011;10319;52.206;20.996;2022-12-15T09:24:12;35.33;;;15.30;;
20322;SDS011;10319;52.206;20.996;2022-12-15T09:26:37;29.40;;;13.37;;
20322;SDS011;10319;52.206;20.996;2022-12-15T09:29:03;38.80;;;17.67;;
20322;SDS011;10319;52.206;20.996;2022-12-15T09:31:32;42.90;;;19.97;;
20322;SDS011;10319;52.206;20.996;2022-12-15T09:33:58;33.93;;;14.80;;
20322;SDS011;10319;52.206;20.996;2022-12-15T09:36:23;37.80;;;17.17;;
20322;SDS011;10319;52.206;20.996;2022-12-15T09:38:49;46.17;;;19.83;;
20322;SDS011;10319;52.206;20.996;2022-12-15T09:43:41;37.37;;;16.00;;
20322;SDS011;10319;52.206;20.996;2022-12-15T09:49:09;39.20;;;17.57;;
20322;SDS011;10319;52.206;20.996;2022-12-15T09:51:38;33.67;;;14.40;;
20322;SDS011;10319;52.206;20.996;2022-12-15T09:54:06;30.27;;;12.40;;
20322;SDS011;10319;52.206;20.996;2022-12-15T09:56:38;35.87;;;15.50;;
20322;SDS011;10319;52.206;20.996;2022-12-15T09:59:08;33.60;;;14.93;;
20322;SDS011;10319;52.206;20.996;2022-12-15T10:01:41;34.43;;;13.87;;
20322;SDS011;10319;52.206;20.996;2022-12-15T10:04:12;34.07;;;14.30;;
20322;SDS011;10319;52.206;20.996;2022-12-15T10:06:48;31.53;;;13.30;;
20322;SDS011;10319;52.206;20.996;2022-12-15T10:11:46;34.63;;;15.10;;
20322;SDS011;10319;52.206;20.996;2022-12-15T10:14:17;29.17;;;11.43;;
20322;SDS011;10319;52.206;20.996;2022-12-15T10:19:17;32.07;;;13.23;;
20322;SDS011;10319;52.206;20.996;2022-12-15T10:34:32;29.50;;;12.93;;
20322;SDS011;10319;52.206;20.996;2022-12-15T10:36:58;29.67;;;11.97;;
20322;SDS011;10319;52.206;20.996;2022-12-15T10:39:34;28.90;;;10.80;;
20322;SDS011;10319;52.206;20.996;2022-12-15T10:42:08;26.80;;;10.97;;
20322;SDS011;10319;52.206;20.996;2022-12-15T10:44:36;26.83;;;10.47;;
20322;SDS011;10319;52.206;20.996;2022-12-15T10:47:07;27.13;;;11.20;;
20322;SDS011;10319;52.206;20.996;2022-12-15T10:49:33;30.77;;;12.40;;
20322;SDS011;10319;52.206;20.996;2022-12-15T10:51:58;29.87;;;11.23;;
20322;SDS011;10319;52.206;20.996;2022-12-15T10:54:30;42.90;;;17.80;;
20322;SDS011;10319;52.206;20.996;2022-12-15T10:56:56;40.07;;;16.70;;
20322;SDS011;10319;52.206;20.996;2022-12-15T10:59:24;32.70;;;14.40;;
20322;SDS011;10319;52.206;20.996;2022-12-15T11:01:50;37.53;;;15.93;;
20322;SDS011;10319;52.206;20.996;2022-12-15T11:04:25;46.57;;;20.20;;
20322;SDS011;10319;52.206;20.996;2022-12-15T11:06:51;42.20;;;18.27;;
20322;SDS011;10319;52.206;20.996;2022-12-15T11:09:27;32.07;;;13.50;;
20322;SDS011;10319;52.206;20.996;2022-12-15T11:11:55;39.33;;;16.30;;
20322;SDS011;10319;52.206;20.996;2022-12-15T11:14:41;40.87;;;18.07;;
20322;SDS011;10319;52.206;20.996;2022-12-15T11:17:06;44.80;;;20.40;;
20322;SDS011;10319;52.206;20.996;2022-12-15T11:19:37;36.10;;;15.60;;
20322;SDS011;10319;52.206;20.996;2022-12-15T11:22:04;39.23;;;15.47;;
20322;SDS011;10319;52.206;20.996;2022-12-15T11:24:35;37.73;;;15.57;;
20322;SDS011;10319;52.206;20.996;2022-12-15T11:27:14;41.50;;;16.83;;
20322;SDS011;10319;52.206;20.996;2022-12-15T11:32:12;38.43;;;16.67;;
20322;SDS011;10319;52.206;20.996;2022-12-15T11:34:43;52.03;;;22.37;;
20322;SDS011;10319;52.206;20.996;2022-12-15T11:42:08;39.27;;;16.17;;
20322;SDS011;10319;52.206;20.996;2022-12-15T11:44:45;41.07;;;18.20;;
20322;SDS011;10319;52.206;20.996;2022-12-15T11:48:01;43.70;;;19.57;;
20322;SDS011;10319;52.206;20.996;2022-12-15T11:55:06;43.30;;;18.67;;
20322;SDS011;10319;52.206;20.996;2022-12-15T11:57:58;38.10;;;16.40;;
20322;SDS011;10319;52.206;20.996;2022-12-15T12:00:26;39.00;;;15.97;;
20322;SDS011;10319;52.206;20.996;2022-12-15T12:03:00;38.43;;;15.73;;
20322;SDS011;10319;52.206;20.996;2022-12-15T12:05:35;42.03;;;17.77;;
20322;SDS011;10319;52.206;20.996;2022-12-15T12:18:11;48.57;;;19.63;;
20322;SDS011;10319;52.206;20.996;2022-12-15T12:23:11;40.60;;;16.40;;
20322;SDS011;10319;52.206;20.996;2022-12-15T12:25:42;43.50;;;17.70;;
20322;SDS011;10319;52.206;20.996;2022-12-15T12:28:15;40.03;;;16.17;;
20322;SDS011;10319;52.206;20.996;2022-12-15T12:30:43;33.93;;;12.67;;
20322;SDS011;10319;52.206;20.996;2022-12-15T12:35:36;40.03;;;15.97;;
20322;SDS011;10319;52.206;20.996;2022-12-15T12:38:06;33.43;;;13.47;;
20322;SDS011;10319;52.206;20.996;2022-12-15T12:42:59;42.33;;;15.63;;
20322;SDS011;10319;52.206;20.996;2022-12-15T12:50:46;46.60;;;18.93;;
20322;SDS011;10319;52.206;20.996;2022-12-15T12:53:30;43.23;;;17.90;;
20322;SDS011;10319;52.206;20.996;2022-12-15T12:55:56;34.07;;;13.97;;
20322;SDS011;10319;52.206;20.996;2022-12-15T13:01:14;38.87;;;15.63;;
20322;SDS011;10319;52.206;20.996;2022-12-15T13:03:41;30.40;;;12.73;;
20322;SDS011;10319;52.206;20.996;2022-12-15T13:14:14;43.83;;;18.13;;
20322;SDS011;10319;52.206;20.996;2022-12-15T13:16:40;45.10;;;18.17;;
20322;SDS011;10319;52.206;20.996;2022-12-15T13:19:06;34.77;;;13.97;;
20322;SDS011;10319;52.206;20.996;2022-12-15T13:21:51;34.83;;;14.13;;
20322;SDS011;10319;52.206;20.996;2022-12-15T13:26:48;33.37;;;13.17;;
20322;SDS011;10319;52.206;20.996;2022-12-15T13:29:13;30.23;;;11.60;;
20322;SDS011;10319;52.206;20.996;2022-12-15T13:31:47;34.60;;;13.50;;
20322;SDS011;10319;52.206;20.996;2022-12-15T13:34:13;35.30;;;13.77;;
20322;SDS011;10319;52.206;20.996;2022-12-15T13:36:43;28.80;;;11.27;;
20322;SDS011;10319;52.206;20.996;2022-12-15T13:44:13;36.77;;;15.07;;
20322;SDS011;10319;52.206;20.996;2022-12-15T13:46:39;42.33;;;16.97;;
20322;SDS011;10319;52.206;20.996;2022-12-15T13:49:11;45.43;;;18.33;;
20322;SDS011;10319;52.206;20.996;2022-12-15T13:51:40;50.90;;;19.83;;
20322;SDS011;10319;52.206;20.996;2022-12-15T13:54:17;43.93;;;17.93;;
20322;SDS011;10319;52.206;20.996;2022-12-15T13:56:45;39.00;;;14.77;;
20322;SDS011;10319;52.206;20.996;2022-12-15T13:59:15;43.80;;;17.60;;
20322;SDS011;10319;52.206;20.996;2022-12-15T14:01:49;44.37;;;15.97;;
20322;SDS011;10319;52.206;20.996;2022-12-15T14:04:15;39.67;;;14.40;;
20322;SDS011;10319;52.206;20.996;2022-12-15T14:07:01;42.43;;;16.27;;
20322;SDS011;10319;52.206;20.996;2022-12-15T14:09:30;38.30;;;14.13;;
20322;SDS011;10319;52.206;20.996;2022-12-15T14:11:56;46.07;;;17.10;;
20322;SDS011;10319;52.206;20.996;2022-12-15T14:14:22;45.03;;;16.67;;
20322;SDS011;10319;52.206;20.996;2022-12-15T14:16:55;38.60;;;14.10;;
20322;SDS011;10319;52.206;20.996;2022-12-15T14:19:21;41.70;;;15.03;;
20322;SDS011;10319;52.206;20.996;2022-12-15T14:21:54;38.07;;;14.17;;
20322;SDS011;10319;52.206;20.996;2022-12-15T14:24:26;42.27;;;15.50;;
20322;SDS011;10319;52.206;20.996;2022-12-15T14:26:52;43.77;;;16.57;;
20322;SDS011;10319;52.206;20.996;2022-12-15T14:29:17;32.13;;;11.80;;
20322;SDS011;10319;52.206;20.996;2022-12-15T14:31:50;33.57;;;12.63;;
20322;SDS011;10319;52.206;20.996;2022-12-15T14:34:18;34.23;;;12.97;;
20322;SDS011;10319;52.206;20.996;2022-12-15T14:36:45;31.10;;;10.53;;
20322;SDS011;10319;52.206;20.996;2022-12-15T14:39:16;44.57;;;16.07;;
20322;SDS011;10319;52.206;20.996;2022-12-15T14:41:44;43.83;;;16.43;;
20322;SDS011;10319;52.206;20.996;2022-12-15T14:44:31;36.90;;;13.60;;
20322;SDS011;10319;52.206;20.996;2022-12-15T14:46:55;41.10;;;14.83;;
20322;SDS011;10319;52.206;20.996;2022-12-15T14:49:31;47.37;;;16.80;;
20322;SDS011;10319;52.206;20.996;2022-12-15T14:51:58;37.27;;;13.90;;
20322;SDS011;10319;52.206;20.996;2022-12-15T14:54:37;37.97;;;13.37;;
20322;SDS011;10319;52.206;20.996;2022-12-15T14:57:13;38.97;;;14.10;;
20322;SDS011;10319;52.206;20.996;2022-12-15T14:59:42;33.20;;;11.47;;
20322;SDS011;10319;52.206;20.996;2022-12-15T15:04:33;39.37;;;12.60;;
20322;SDS011;10319;52.206;20.996;2022-12-15T15:07:00;38.60;;;13.87;;
20322;SDS011;10319;52.206;20.996;2022-12-15T15:09:30;36.43;;;12.67;;
20322;SDS011;10319;52.206;20.996;2022-12-15T15:12:12;34.37;;;12.40;;
20322;SDS011;10319;52.206;20.996;2022-12-15T15:14:42;37.53;;;13.33;;
20322;SDS011;10319;52.206;20.996;2022-12-15T15:19:37;34.73;;;12.17;;
20322;SDS011;10319;52.206;20.996;2022-12-15T15:22:03;34.30;;;12.07;;
20322;SDS011;10319;52.206;20.996;2022-12-15T15:24:29;38.70;;;12.97;;
20322;SDS011;10319;52.206;20.996;2022-12-15T15:27:16;33.20;;;10.63;;
20322;SDS011;10319;52.206;20.996;2022-12-15T15:29:40;32.30;;;11.23;;
20322;SDS011;10319;52.206;20.996;2022-12-15T15:32:13;39.90;;;14.27;;
20322;SDS011;10319;52.206;20.996;2022-12-15T15:34:39;37.57;;;12.80;;
20322;SDS011;10319;52.206;20.996;2022-12-15T15:37:07;35.17;;;11.37;;
20322;SDS011;10319;52.206;20.996;2022-12-15T15:39:35;24.60;;;8.13;;
20322;SDS011;10319;52.206;20.996;2022-12-15T15:42:09;32.60;;;11.43;;
20322;SDS011;10319;52.206;20.996;2022-12-15T15:44:35;27.93;;;9.87;;
20322;SDS011;10319;52.206;20.996;2022-12-15T15:47:00;30.43;;;10.27;;
20322;SDS011;10319;52.206;20.996;2022-12-15T15:49:25;33.77;;;11.93;;
20322;SDS011;10319;52.206;20.996;2022-12-15T15:51:51;24.47;;;8.23;;
20322;SDS011;10319;52.206;20.996;2022-12-15T15:54:21;31.63;;;10.67;;
20322;SDS011;10319;52.206;20.996;2022-12-15T15:56:50;45.03;;;15.37;;
20322;SDS011;10319;52.206;20.996;2022-12-15T15:59:17;42.53;;;15.53;;
20322;SDS011;10319;52.206;20.996;2022-12-15T16:01:43;43.67;;;16.07;;
20322;SDS011;10319;52.206;20.996;2022-12-15T16:04:10;39.43;;;14.63;;
20322;SDS011;10319;52.206;20.996;2022-12-15T16:06:36;37.43;;;14.17;;
20322;SDS011;10319;52.206;20.996;2022-12-15T16:09:08;34.53;;;12.57;;
20322;SDS011;10319;52.206;20.996;2022-12-15T16:11:36;32.03;;;11.83;;
20322;SDS011;10319;52.206;20.996;2022-12-15T16:14:01;28.57;;;10.83;;
20322;SDS011;10319;52.206;20.996;2022-12-15T16:16:29;36.80;;;13.73;;